Time;durP1;ratioP1;P1;durP2;ratioP2;P2;SDS_P1;SDS_P2;PMS_P1;PMS_P2;Temp;Humidity;BMP_temperature;BMP_pressure;BME280_temperature;BME280_humidity;BME280_pressure;Samples;Min_cycle;Max_cycle;Signal;HPM_P1;HPM_P2
2022/03/01 00:00:37;;;;;;;33.80;16.27;;;;;;;0.71;89.29;95360.06;5054954;28;20247;-91
2022/03/01 00:03:07;;;;;;;31.20;15.17;;;;;;;0.73;88.63;95359.91;5051198;28;20209;-81
2022/03/01 00:05:37;;;;;;;29.57;15.63;;;;;;;0.66;89.11;95356.31;5050503;28;20553;-83
2022/03/01 00:08:07;;;;;;;25.00;14.37;;;;;;;0.64;89.11;95355.63;5050954;28;20233;-91
2022/03/01 00:10:34;;;;;;;29.50;15.50;;;;;;;0.65;87.97;95350.38;5052639;28;20199;-91
2022/03/01 00:13:02;;;;;;;37.87;15.83;;;;;;;0.63;88.67;95347.16;5052969;28;20642;-90
2022/03/01 00:15:32;;;;;;;29.97;15.50;;;;;;;0.57;89.15;95347.72;5051990;28;20604;-90
2022/03/01 00:18:00;;;;;;;31.60;15.77;;;;;;;0.45;89.51;95351.38;5049161;28;20237;-91
2022/03/01 00:20:31;;;;;;;28.53;14.53;;;;;;;0.45;90.18;95347.09;5034477;28;20613;-91
2022/03/01 00:22:59;;;;;;;29.90;14.30;;;;;;;0.46;89.49;95348.69;5053244;28;20213;-90
2022/03/01 00:25:28;;;;;;;26.70;14.10;;;;;;;0.43;89.87;95343.84;5053165;28;20295;-92
2022/03/01 00:27:56;;;;;;;24.90;13.70;;;;;;;0.35;90.48;95325.03;5054326;28;20210;-91
2022/03/01 00:30:25;;;;;;;25.63;13.83;;;;;;;0.34;90.58;95334.47;5055668;28;20297;-92
2022/03/01 00:32:55;;;;;;;25.07;13.97;;;;;;;0.41;90.06;95332.16;5060893;28;20682;-91
2022/03/01 00:35:22;;;;;;;24.30;12.37;;;;;;;0.40;89.73;95333.94;5072330;28;20286;-91
2022/03/01 00:37:50;;;;;;;22.17;11.83;;;;;;;0.39;90.68;95322.09;5064607;28;20219;-90
2022/03/01 00:40:19;;;;;;;21.53;11.47;;;;;;;0.32;90.78;95325.31;5053532;28;20225;-92
2022/03/01 00:42:46;;;;;;;18.17;10.27;;;;;;;0.38;90.87;95329.88;5054512;28;20549;-91
2022/03/01 00:45:16;;;;;;;17.60;10.10;;;;;;;0.37;90.46;95323.97;5052187;28;20292;-89
2022/03/01 00:47:44;;;;;;;15.20;9.17;;;;;;;0.38;90.21;95320.47;5051108;28;20199;-88
2022/03/01 00:50:14;;;;;;;14.40;8.47;;;;;;;0.35;89.66;95322.47;5042635;28;20199;-88
2022/03/01 00:52:42;;;;;;;13.83;7.80;;;;;;;0.32;90.00;95310.78;5049788;28;20208;-87
2022/03/01 00:55:11;;;;;;;13.27;7.77;;;;;;;0.24;89.98;95317.53;5052123;28;20232;-88
2022/03/01 00:57:39;;;;;;;12.80;7.70;;;;;;;0.33;90.32;95306.50;5051569;28;20662;-87
2022/03/01 01:00:09;;;;;;;12.27;6.90;;;;;;;0.33;90.27;95309.03;5051911;28;20311;-87
2022/03/01 01:02:37;;;;;;;12.27;7.67;;;;;;;0.33;90.02;95307.31;5052384;28;20223;-86
2022/03/01 01:05:05;;;;;;;12.70;7.73;;;;;;;0.21;90.14;95298.19;5052404;28;20236;-86
2022/03/01 01:07:37;;;;;;;11.57;7.27;;;;;;;0.28;90.46;95309.47;5052263;28;20195;-86
2022/03/01 01:10:05;;;;;;;12.97;7.27;;;;;;;0.25;90.40;95309.75;5051932;28;20202;-84
2022/03/01 01:12:35;;;;;;;11.60;7.20;;;;;;;0.23;91.19;95300.63;5052131;28;20244;-85
2022/03/01 01:15:05;;;;;;;18.80;10.83;;;;;;;0.22;90.68;95306.66;5052269;28;20220;-84
2022/03/01 01:17:33;;;;;;;17.40;10.43;;;;;;;0.25;91.27;95311.50;5046971;28;20209;-83
2022/03/01 01:20:02;;;;;;;19.47;10.63;;;;;;;0.16;91.62;95313.13;5045275;28;20218;-84
2022/03/01 01:22:42;;;;;;;27.23;16.40;;;;;;;0.15;92.65;95300.47;5043820;28;20210;-89
2022/03/01 01:25:14;;;;;;;29.83;17.67;;;;;;;0.09;93.27;95308.72;5039491;28;20709;-88
2022/03/01 01:27:44;;;;;;;37.20;19.13;;;;;;;0.13;92.85;95312.59;5052654;28;20273;-87
2022/03/01 01:30:14;;;;;;;38.17;19.70;;;;;;;0.10;92.97;95297.53;5052363;28;20194;-86
2022/03/01 01:32:42;;;;;;;34.13;17.97;;;;;;;0.15;93.65;95300.47;5052757;28;20194;-87
2022/03/01 01:35:14;;;;;;;29.53;16.23;;;;;;;0.10;93.40;95283.03;5044998;28;20288;-83
2022/03/01 01:37:42;;;;;;;28.10;15.47;;;;;;;0.09;94.42;95294.19;5055338;28;20297;-84
2022/03/01 01:40:14;;;;;;;27.70;15.10;;;;;;;0.09;94.89;95291.63;5055273;28;20222;-84
2022/03/01 01:42:43;;;;;;;28.73;15.40;;;;;;;0.06;94.81;95291.91;5054748;28;20265;-82
2022/03/01 01:45:11;;;;;;;29.07;16.10;;;;;;;-0.02;95.45;95284.94;5040973;28;20274;-82
2022/03/01 01:47:39;;;;;;;27.73;15.60;;;;;;;-0.04;95.66;95276.63;5054570;28;20229;-82
2022/03/01 01:50:09;;;;;;;28.57;15.60;;;;;;;-0.16;96.13;95275.16;5054626;28;20209;-82
2022/03/01 01:52:38;;;;;;;29.73;16.00;;;;;;;-0.09;96.44;95277.97;5054060;28;20930;-80
2022/03/01 01:55:08;;;;;;;31.03;16.40;;;;;;;-0.08;96.15;95282.13;5053256;28;20199;-80
2022/03/01 01:57:38;;;;;;;29.67;16.43;;;;;;;-0.17;96.62;95273.53;5047187;28;20554;-80
2022/03/01 02:00:09;;;;;;;30.33;16.53;;;;;;;-0.10;96.89;95274.59;5053166;28;20227;-81
2022/03/01 02:02:39;;;;;;;26.93;14.33;;;;;;;-0.18;96.82;95276.25;5054482;28;20206;-81
2022/03/01 02:05:08;;;;;;;28.00;15.63;;;;;;;-0.21;96.88;95279.06;5054385;28;20641;-81
2022/03/01 02:07:38;;;;;;;27.67;15.67;;;;;;;-0.28;96.69;95260.94;5053589;28;20214;-82
2022/03/01 02:10:07;;;;;;;29.83;16.33;;;;;;;-0.27;96.86;95271.94;5053601;28;20206;-84
2022/03/01 02:12:37;;;;;;;27.03;14.97;;;;;;;-0.48;97.97;95248.31;5048355;28;20238;-87
2022/03/01 02:15:06;;;;;;;28.40;15.30;;;;;;;-0.35;97.89;95264.19;5050419;28;20209;-80
2022/03/01 02:17:35;;;;;;;27.50;15.50;;;;;;;-0.34;97.42;95260.66;5051465;28;20580;-80
2022/03/01 02:20:09;;;;;;;26.77;14.93;;;;;;;-0.42;98.16;95255.44;5052049;28;20225;-79
2022/03/01 02:22:37;;;;;;;32.00;15.43;;;;;;;-0.53;98.32;95250.47;5052100;28;20206;-78
2022/03/01 02:25:05;;;;;;;29.60;16.30;;;;;;;-0.57;98.79;95240.53;5045696;28;20727;-79
2022/03/01 02:27:34;;;;;;;25.77;14.67;;;;;;;-0.56;98.59;95233.69;5046004;28;20210;-78
2022/03/01 02:30:03;;;;;;;22.93;14.40;;;;;;;-0.73;98.87;95227.53;5044669;28;20229;-79
2022/03/01 02:32:32;;;;;;;25.20;14.53;;;;;;;-0.84;98.94;95224.31;5052137;28;20289;-81
2022/03/01 02:35:00;;;;;;;24.57;13.43;;;;;;;-0.99;99.75;95216.25;5053173;28;20606;-82
2022/03/01 02:37:30;;;;;;;26.77;13.47;;;;;;;-1.03;99.70;95216.66;5053944;28;20285;-82
2022/03/01 02:39:57;;;;;;;24.10;13.03;;;;;;;-0.82;99.76;95232.63;5053904;28;20288;-84
2022/03/01 02:42:27;;;;;;;23.17;13.27;;;;;;;-0.78;99.42;95219.47;5047051;28;20206;-82
2022/03/01 02:44:55;;;;;;;25.40;13.37;;;;;;;-0.69;98.95;95230.59;5053675;28;20210;-82
2022/03/01 02:47:23;;;;;;;24.53;13.10;;;;;;;-0.61;98.89;95229.00;5053365;28;20202;-82
2022/03/01 02:49:52;;;;;;;20.43;12.50;;;;;;;-0.60;98.54;95243.38;5050978;28;20198;-80
2022/03/01 02:52:20;;;;;;;26.27;13.13;;;;;;;-0.59;99.10;95245.00;5045650;28;20237;-80
2022/03/01 02:54:50;;;;;;;19.63;12.20;;;;;;;-0.50;98.33;95245.09;5051087;28;20202;-79
2022/03/01 02:57:20;;;;;;;25.20;13.20;;;;;;;-0.55;98.12;95248.09;5051334;28;20271;-80
2022/03/01 02:59:47;;;;;;;25.70;13.37;;;;;;;-0.62;98.89;95231.69;5050771;28;20578;-79
2022/03/01 03:02:17;;;;;;;25.73;13.23;;;;;;;-0.57;99.34;95245.66;5051815;28;20205;-80
2022/03/01 03:04:44;;;;;;;24.17;13.27;;;;;;;-0.54;99.70;95249.66;5051468;28;20217;-81
2022/03/01 03:07:12;;;;;;;23.17;12.93;;;;;;;-0.51;99.95;95246.84;5043686;28;20252;-81
2022/03/01 03:09:40;;;;;;;22.70;13.27;;;;;;;-0.57;100.00;95238.00;5052050;28;20213;-81
2022/03/01 03:12:10;;;;;;;22.63;12.97;;;;;;;-0.54;100.00;95249.66;5045059;28;20238;-82
2022/03/01 03:14:38;;;;;;;22.37;13.57;;;;;;;-0.54;99.98;95244.56;5051400;28;20350;-80
2022/03/01 03:17:06;;;;;;;24.53;13.93;;;;;;;-0.60;100.00;95242.56;5044485;28;20199;-80
2022/03/01 03:19:34;;;;;;;30.47;17.07;;;;;;;-0.54;99.54;95248.84;5050426;28;20263;-80
2022/03/01 03:22:03;;;;;;;33.73;19.13;;;;;;;-0.54;98.99;95252.22;5051666;28;20288;-81
2022/03/01 03:24:30;;;;;;;36.00;20.40;;;;;;;-0.54;99.58;95254.78;5051906;28;20198;-87
2022/03/01 03:27:15;;;;;;;39.50;21.00;;;;;;;-0.59;98.58;95232.22;5052460;28;20190;-86
2022/03/01 03:29:46;;;;;;;41.60;23.70;;;;;;;-0.47;98.67;95250.75;5053598;28;20581;-88
2022/03/01 03:32:14;;;;;;;35.73;22.13;;;;;;;-0.47;98.71;95253.31;5054307;28;20263;-83
2022/03/01 03:34:42;;;;;;;30.20;17.83;;;;;;;-0.50;97.91;95253.56;5051968;28;20217;-83
2022/03/01 03:37:10;;;;;;;26.37;15.37;;;;;;;-0.58;98.01;95256.78;5051138;28;20296;-82
2022/03/01 03:39:38;;;;;;;24.70;13.63;;;;;;;-0.61;97.83;95254.50;5049591;28;20252;-80
2022/03/01 03:42:06;;;;;;;23.57;13.47;;;;;;;-0.62;96.81;95257.19;5050785;28;20308;-80
2022/03/01 03:44:35;;;;;;;22.07;13.63;;;;;;;-0.71;96.90;95255.44;5051026;28;20206;-81
2022/03/01 03:47:04;;;;;;;23.53;13.50;;;;;;;-0.68;96.96;95253.44;5045828;28;20768;-79
2022/03/01 03:49:32;;;;;;;23.77;14.03;;;;;;;-0.64;96.64;95254.00;5049552;28;20206;-79
2022/03/01 03:52:00;;;;;;;23.33;13.77;;;;;;;-0.73;96.83;95252.25;5049975;28;20252;-79
2022/03/01 03:54:29;;;;;;;26.50;14.57;;;;;;;-0.84;97.46;95250.63;5043450;28;20283;-79
2022/03/01 03:56:58;;;;;;;26.67;15.27;;;;;;;-0.81;97.63;95252.13;5048334;28;20225;-79
2022/03/01 03:59:26;;;;;;;29.07;15.77;;;;;;;-0.82;97.88;95246.19;5049101;28;20687;-80
2022/03/01 04:01:56;;;;;;;30.87;17.43;;;;;;;-0.87;98.02;95234.78;5050700;28;20631;-81
2022/03/01 04:04:25;;;;;;;28.53;16.97;;;;;;;-0.83;97.86;95252.22;5050727;28;20293;-80
2022/03/01 04:06:53;;;;;;;27.67;16.63;;;;;;;-0.84;98.23;95252.38;5049990;28;20226;-80
2022/03/01 04:09:21;;;;;;;30.47;17.43;;;;;;;-0.84;98.41;95247.28;5050015;28;20673;-81
2022/03/01 04:11:49;;;;;;;32.03;17.47;;;;;;;-0.90;98.71;95243.53;5044344;28;20297;-81
2022/03/01 04:14:18;;;;;;;28.37;16.57;;;;;;;-0.97;98.17;95228.88;5050647;28;20664;-81
2022/03/01 04:16:47;;;;;;;34.87;18.00;;;;;;;-0.90;98.62;95248.63;5050417;28;20673;-81
2022/03/01 04:19:17;;;;;;;30.13;16.43;;;;;;;-0.96;98.81;95246.59;5050618;28;20673;-81
2022/03/01 04:21:47;;;;;;;29.20;15.73;;;;;;;-0.99;99.38;95246.06;5044215;28;20225;-81
2022/03/01 04:24:15;;;;;;;31.30;16.90;;;;;;;-0.97;99.32;95241.63;5050548;28;20696;-80
2022/03/01 04:26:43;;;;;;;31.40;17.27;;;;;;;-0.95;99.29;95249.97;5049915;28;20214;-81
2022/03/01 04:29:11;;;;;;;32.40;16.93;;;;;;;-0.97;99.95;95250.09;5049986;28;20201;-81
2022/03/01 04:31:40;;;;;;;30.20;16.87;;;;;;;-0.96;99.98;95245.78;5050252;28;20214;-82
2022/03/01 04:34:08;;;;;;;29.43;16.37;;;;;;;-1.01;99.95;95243.63;5050058;28;20206;-81
2022/03/01 04:36:38;;;;;;;30.70;17.27;;;;;;;-0.92;99.56;95252.22;5050420;28;20260;-81
2022/03/01 04:39:07;;;;;;;31.33;18.07;;;;;;;-0.90;99.51;95238.41;5049865;28;20201;-81
2022/03/01 04:41:35;;;;;;;32.13;17.87;;;;;;;-0.91;99.64;95254.66;5050063;28;20612;-81
2022/03/01 04:44:05;;;;;;;29.33;16.83;;;;;;;-0.87;99.50;95248.34;5049990;28;20263;-82
2022/03/01 04:46:33;;;;;;;31.90;17.67;;;;;;;-0.98;99.55;95258.66;5049880;28;20240;-81
2022/03/01 04:49:02;;;;;;;30.90;17.43;;;;;;;-0.95;100.00;95255.84;5036268;28;20661;-81
2022/03/01 04:51:29;;;;;;;29.13;17.30;;;;;;;-0.99;99.88;95254.50;5050568;28;20221;-81
2022/03/01 04:53:57;;;;;;;37.03;19.87;;;;;;;-0.89;99.46;95254.50;5051019;28;20210;-81
2022/03/01 04:56:27;;;;;;;50.37;25.30;;;;;;;-0.89;99.67;95259.59;5044655;28;20207;-81
2022/03/01 04:58:56;;;;;;;54.53;27.07;;;;;;;-0.89;99.42;95255.31;5060732;28;20236;-84
2022/03/01 05:01:24;;;;;;;50.43;25.80;;;;;;;-0.92;99.49;95270.06;5045855;28;20237;-73
2022/03/01 05:03:51;;;;;;;47.70;24.03;;;;;;;-0.88;99.46;95266.31;5048474;28;20209;-74
2022/03/01 05:06:19;;;;;;;46.33;22.97;;;;;;;-0.92;99.70;95268.34;5039256;28;20285;-73
2022/03/01 05:08:46;;;;;;;35.17;19.53;;;;;;;-0.94;100.00;95267.66;5045133;28;20583;-73
2022/03/01 05:11:15;;;;;;;26.30;15.07;;;;;;;-0.89;99.27;95259.59;5046010;28;20221;-73
2022/03/01 05:13:44;;;;;;;31.23;17.60;;;;;;;-0.97;98.12;95259.47;5052401;28;20213;-73
2022/03/01 05:16:11;;;;;;;20.07;12.00;;;;;;;-1.00;98.15;95272.47;5052562;28;20202;-73
2022/03/01 05:18:40;;;;;;;18.03;11.03;;;;;;;-1.00;97.01;95270.75;5052149;28;20237;-72
2022/03/01 05:21:07;;;;;;;25.50;12.33;;;;;;;-1.01;96.53;95269.13;5051335;28;20275;-71
2022/03/01 05:23:35;;;;;;;21.03;11.73;;;;;;;-0.95;96.02;95270.38;5051969;28;20211;-73
2022/03/01 05:26:04;;;;;;;25.27;12.40;;;;;;;-0.92;96.35;95268.34;5052193;28;20230;-71
2022/03/01 05:28:33;;;;;;;27.13;13.63;;;;;;;-0.93;96.64;95263.38;5052757;28;20272;-72
2022/03/01 05:31:02;;;;;;;22.60;12.10;;;;;;;-0.88;95.93;95276.53;5052787;28;20213;-72
2022/03/01 05:33:30;;;;;;;20.27;11.03;;;;;;;-0.95;96.24;95271.16;5052523;28;20214;-72
2022/03/01 05:35:59;;;;;;;22.40;12.63;;;;;;;-0.92;95.96;95270.88;5052266;28;20724;-73
2022/03/01 05:38:27;;;;;;;19.73;11.93;;;;;;;-0.91;96.66;95271.69;5052047;28;20263;-72
2022/03/01 05:40:56;;;;;;;23.87;11.77;;;;;;;-0.88;95.94;95268.88;5052398;28;20220;-73
2022/03/01 05:43:24;;;;;;;23.70;11.40;;;;;;;-0.78;95.02;95279.91;5051668;28;20209;-73
2022/03/01 05:45:54;;;;;;;22.13;10.23;;;;;;;-0.84;94.63;95276.16;5052447;28;20213;-73
2022/03/01 05:48:24;;;;;;;17.77;10.10;;;;;;;-0.79;94.28;95276.53;5051648;28;20548;-72
2022/03/01 05:50:53;;;;;;;17.10;9.80;;;;;;;-0.71;93.95;95281.78;5051963;28;20233;-72
2022/03/01 05:53:20;;;;;;;15.53;9.27;;;;;;;-0.72;93.99;95282.72;5051342;28;20292;-72
2022/03/01 05:55:49;;;;;;;14.10;8.97;;;;;;;-0.60;93.11;95291.84;5051925;28;20225;-72
2022/03/01 05:58:16;;;;;;;16.50;9.40;;;;;;;-0.66;93.68;95294.94;5051411;28;20677;-71
2022/03/01 06:00:44;;;;;;;14.30;8.80;;;;;;;-0.62;93.94;95300.59;5050248;28;20255;-72
2022/03/01 06:03:13;;;;;;;13.13;8.57;;;;;;;-0.55;93.72;95301.66;5051765;28;20209;-72
2022/03/01 06:05:43;;;;;;;13.03;9.20;;;;;;;-0.55;93.40;95305.97;5051158;28;20298;-71
2022/03/01 06:08:12;;;;;;;12.13;7.87;;;;;;;-0.50;93.03;95307.16;5051241;28;20237;-72
2022/03/01 06:10:40;;;;;;;15.70;8.33;;;;;;;-0.42;92.43;95312.41;5051674;28;20278;-71
2022/03/01 06:13:17;;;;;;;14.40;8.07;;;;;;;-0.42;91.84;95304.75;5047491;28;20322;-73
2022/03/01 06:15:45;;;;;;;13.63;7.97;;;;;;;-0.36;92.18;95313.59;5051759;28;20219;-71
2022/03/01 06:18:13;;;;;;;27.67;13.13;;;;;;;-0.36;92.95;95311.06;5051048;28;20292;-71
2022/03/01 06:20:44;;;;;;;19.03;10.40;;;;;;;-0.37;92.99;95317.91;5050149;28;20225;-72
2022/03/01 06:23:12;;;;;;;20.17;9.63;;;;;;;-0.29;91.68;95314.69;5050299;28;20229;-72
2022/03/01 06:25:42;;;;;;;16.33;9.20;;;;;;;-0.22;91.97;95314.00;5051545;28;20695;-71
2022/03/01 06:28:09;;;;;;;20.50;8.87;;;;;;;-0.21;92.08;95309.72;5050205;28;20202;-73
2022/03/01 06:30:37;;;;;;;19.27;10.47;;;;;;;-0.10;92.03;95309.56;5048864;28;20199;-72
2022/03/01 06:33:06;;;;;;;21.33;12.43;;;;;;;-0.12;91.77;95311.44;5050486;28;20198;-71
2022/03/01 06:35:35;;;;;;;15.50;8.53;;;;;;;-0.07;91.34;95312.66;5050682;28;20233;-72
2022/03/01 06:38:05;;;;;;;14.90;8.43;;;;;;;-0.07;91.26;95316.94;5050554;28;20209;-72
2022/03/01 06:40:33;;;;;;;13.67;8.40;;;;;;;-0.06;91.24;95310.91;5050737;28;20233;-71
2022/03/01 06:43:01;;;;;;;13.43;8.27;;;;;;;0.06;91.68;95304.66;5044575;28;20226;-72
2022/03/01 06:45:31;;;;;;;11.53;7.67;;;;;;;0.11;91.25;95315.31;5050616;28;20663;-74
2022/03/01 06:48:00;;;;;;;16.30;8.30;;;;;;;0.13;90.64;95307.50;5050373;28;20202;-75
2022/03/01 06:50:27;;;;;;;12.37;7.10;;;;;;;0.14;90.75;95298.88;5050712;28;20213;-84
2022/03/01 06:52:56;;;;;;;12.10;6.83;;;;;;;0.18;90.00;95316.34;5053007;28;20202;-85
2022/03/01 06:55:25;;;;;;;10.43;6.57;;;;;;;0.19;89.92;95296.72;5053694;28;20198;-83
2022/03/01 06:57:53;;;;;;;11.53;7.10;;;;;;;0.33;90.24;95306.50;5052102;28;20206;-83
2022/03/01 07:00:21;;;;;;;10.80;6.90;;;;;;;0.26;89.46;95290.91;5052390;28;20211;-85
2022/03/01 07:02:49;;;;;;;9.30;6.00;;;;;;;0.38;90.44;95305.13;5052486;28;20233;-86
2022/03/01 07:05:19;;;;;;;10.43;6.30;;;;;;;0.41;90.09;95306.59;5052396;28;20296;-85
2022/03/01 07:07:48;;;;;;;13.47;6.77;;;;;;;0.44;89.66;95303.75;5052099;28;20335;-84
2022/03/01 07:10:16;;;;;;;12.80;6.57;;;;;;;0.52;89.05;95314.09;5052759;28;20260;-84
2022/03/01 07:12:47;;;;;;;18.10;6.60;;;;;;;0.50;89.71;95310.88;5052110;28;20703;-85
2022/03/01 07:15:15;;;;;;;9.80;5.67;;;;;;;0.36;90.06;95312.13;5052224;28;20257;-85
2022/03/01 07:17:43;;;;;;;10.33;6.03;;;;;;;0.33;90.10;95301.38;5052332;28;20206;-85
2022/03/01 07:20:11;;;;;;;8.77;5.97;;;;;;;0.50;89.80;95306.56;5051773;28;20213;-86
2022/03/01 07:22:39;;;;;;;10.07;6.63;;;;;;;0.62;90.31;95307.19;5054359;28;20250;-85
2022/03/01 07:25:09;;;;;;;9.87;6.47;;;;;;;0.65;89.06;95313.78;5053143;28;20198;-86
2022/03/01 07:27:49;;;;;;;9.77;6.40;;;;;;;0.74;89.59;95318.03;5052919;28;20200;-86
2022/03/01 07:30:16;;;;;;;13.30;5.97;;;;;;;0.79;88.40;95326.91;5046205;28;20210;-85
2022/03/01 07:32:44;;;;;;;8.27;6.10;;;;;;;0.89;88.86;95316.63;5052280;28;20196;-86
2022/03/01 07:35:12;;;;;;;9.63;6.20;;;;;;;0.97;87.47;95317.53;5051124;28;20234;-87
2022/03/01 07:37:40;;;;;;;18.30;6.73;;;;;;;0.99;86.81;95315.63;5052538;28;20284;-83
2022/03/01 07:40:11;;;;;;;11.57;7.23;;;;;;;0.97;87.32;95316.72;5052522;28;20213;-82
2022/03/01 07:42:39;;;;;;;11.67;7.00;;;;;;;0.98;88.10;95305.53;5051900;28;20606;-82
2022/03/01 07:45:09;;;;;;;8.80;6.53;;;;;;;0.94;87.82;95310.13;5051879;28;20202;-83
2022/03/01 07:47:38;;;;;;;9.97;6.37;;;;;;;0.99;86.98;95310.50;5052217;28;20256;-83
2022/03/01 07:50:08;;;;;;;12.43;6.80;;;;;;;1.02;87.73;95305.09;5051314;28;20286;-86
2022/03/01 07:52:36;;;;;;;14.80;7.10;;;;;;;1.12;87.78;95299.94;5052290;28;20204;-84
2022/03/01 07:55:05;;;;;;;15.10;7.20;;;;;;;1.10;86.92;95292.38;5050993;28;20204;-85
2022/03/01 07:57:33;;;;;;;11.83;7.00;;;;;;;1.20;87.50;95300.00;5051463;28;20249;-84
2022/03/01 08:00:01;;;;;;;10.60;6.40;;;;;;;1.26;87.24;95307.13;5052284;28;20202;-83
2022/03/01 08:02:30;;;;;;;9.70;6.67;;;;;;;1.24;86.76;95298.75;5053150;28;20286;-80
2022/03/01 08:05:01;;;;;;;11.97;6.60;;;;;;;1.27;86.42;95310.50;5051824;28;20669;-86
2022/03/01 08:07:29;;;;;;;11.23;7.20;;;;;;;1.34;86.81;95307.19;5050853;28;20205;-76
2022/03/01 08:09:57;;;;;;;9.03;6.33;;;;;;;1.34;88.02;95304.63;5049748;28;20206;-76
2022/03/01 08:12:25;;;;;;;9.53;6.30;;;;;;;1.41;87.36;95304.88;5049945;28;20236;-75
2022/03/01 08:14:52;;;;;;;15.87;6.27;;;;;;;1.49;86.14;95312.63;5050331;28;20206;-76
2022/03/01 08:17:20;;;;;;;11.77;6.60;;;;;;;1.50;86.71;95315.00;5049678;28;20202;-76
2022/03/01 08:19:50;;;;;;;11.73;6.40;;;;;;;1.52;87.00;95315.69;5042239;28;20217;-77
2022/03/01 08:22:17;;;;;;;9.30;6.23;;;;;;;1.58;87.58;95316.84;5050039;28;20282;-76
2022/03/01 08:24:45;;;;;;;11.53;6.60;;;;;;;1.72;86.58;95318.91;5049712;28;20225;-77
2022/03/01 08:27:14;;;;;;;9.97;6.20;;;;;;;1.82;85.57;95317.03;5049794;28;20224;-76
2022/03/01 08:29:42;;;;;;;10.93;6.47;;;;;;;1.80;85.29;95315.59;5050001;28;20293;-81
2022/03/01 08:32:09;;;;;;;10.70;6.97;;;;;;;1.83;86.39;95310.97;5050762;28;20209;-81
2022/03/01 08:34:38;;;;;;;12.90;6.47;;;;;;;2.04;86.06;95324.28;5050375;28;20564;-81
2022/03/01 08:37:09;;;;;;;11.53;6.33;;;;;;;2.17;85.62;95327.25;5050533;28;20215;-80
2022/03/01 08:39:37;;;;;;;11.93;7.00;;;;;;;2.34;84.76;95325.59;5050084;28;20735;-81
2022/03/01 08:42:05;;;;;;;11.80;7.10;;;;;;;2.46;82.64;95321.81;5043790;28;20225;-81
2022/03/01 08:44:33;;;;;;;17.73;7.00;;;;;;;2.44;82.45;95323.75;5050411;28;20278;-82
2022/03/01 08:47:02;;;;;;;11.17;6.43;;;;;;;2.58;82.57;95312.91;5043959;28;20263;-81
2022/03/01 08:49:32;;;;;;;8.63;5.90;;;;;;;2.95;80.97;95329.75;5037249;28;20315;-81
2022/03/01 08:52:00;;;;;;;8.37;6.27;;;;;;;3.04;79.26;95328.81;5037645;28;20199;-83
2022/03/01 08:54:30;;;;;;;9.80;6.53;;;;;;;3.27;79.40;95325.53;5044141;28;20648;-80
2022/03/01 08:56:59;;;;;;;11.03;7.20;;;;;;;3.43;78.85;95327.34;5050002;28;20284;-81
2022/03/01 08:59:27;;;;;;;12.10;6.53;;;;;;;3.57;77.54;95323.34;5049454;28;20198;-80
2022/03/01 09:01:56;;;;;;;13.10;6.57;;;;;;;3.62;77.83;95326.25;5050340;28;20221;-80
2022/03/01 09:04:24;;;;;;;9.47;5.90;;;;;;;3.77;76.50;95324.66;5048854;28;20653;-76
2022/03/01 09:06:52;;;;;;;9.77;6.23;;;;;;;3.91;77.02;95324.03;5037412;28;20204;-77
2022/03/01 09:09:19;;;;;;;11.67;6.47;;;;;;;3.90;77.15;95327.53;5047648;28;20280;-75
2022/03/01 09:11:48;;;;;;;11.20;6.33;;;;;;;4.22;74.80;95334.44;5040786;28;20234;-75
2022/03/01 09:14:16;;;;;;;10.40;5.93;;;;;;;4.70;74.79;95331.00;5047228;28;20226;-76
2022/03/01 09:16:44;;;;;;;10.90;6.90;;;;;;;5.02;74.40;95331.69;5048351;28;20203;-80
2022/03/01 09:19:11;;;;;;;11.67;6.97;;;;;;;4.91;71.90;95329.47;5049796;28;20198;-81
2022/03/01 09:21:38;;;;;;;18.40;7.33;;;;;;;5.17;71.65;95343.91;5048723;28;20207;-80
2022/03/01 09:24:07;;;;;;;9.97;6.53;;;;;;;5.55;70.48;95343.84;5045771;28;20219;-81
2022/03/01 09:26:36;;;;;;;10.73;6.47;;;;;;;5.66;69.17;95346.03;5049850;28;20338;-80
2022/03/01 09:29:05;;;;;;;13.17;7.20;;;;;;;5.52;70.80;95349.34;5049087;28;20214;-81
2022/03/01 09:31:33;;;;;;;9.93;6.73;;;;;;;5.43;69.76;95340.03;5048551;28;20211;-81
2022/03/01 09:34:01;;;;;;;7.73;5.73;;;;;;;5.69;70.46;95340.53;5049288;28;20207;-81
2022/03/01 09:36:30;;;;;;;14.37;7.20;;;;;;;5.78;70.52;95346.44;5046014;28;20233;-80
2022/03/01 09:38:59;;;;;;;10.00;6.77;;;;;;;5.56;69.74;95342.88;5049997;28;20204;-80
2022/03/01 09:41:27;;;;;;;10.50;6.70;;;;;;;5.43;70.36;95341.81;5051473;28;20675;-80
2022/03/01 09:43:55;;;;;;;11.53;6.53;;;;;;;5.26;70.49;95348.81;5049770;28;20294;-80
2022/03/01 09:46:25;;;;;;;9.37;6.13;;;;;;;5.56;69.80;95342.06;5049991;28;20211;-81
2022/03/01 09:48:52;;;;;;;9.47;6.73;;;;;;;5.64;69.90;95344.59;5048189;28;20207;-80
2022/03/01 09:51:22;;;;;;;10.43;6.17;;;;;;;5.64;69.74;95337.66;5048997;28;20215;-81
2022/03/01 09:53:52;;;;;;;11.30;7.03;;;;;;;5.44;70.32;95341.66;5048903;28;20228;-80
2022/03/01 09:56:21;;;;;;;16.20;7.60;;;;;;;5.31;71.40;95340.59;5049120;28;20204;-81
2022/03/01 09:58:49;;;;;;;13.13;7.53;;;;;;;5.36;70.42;95341.69;5053107;28;20211;-81
2022/03/01 10:01:17;;;;;;;11.63;7.50;;;;;;;5.39;71.49;95327.66;5052388;28;20204;-80
2022/03/01 10:03:48;;;;;;;12.23;6.30;;;;;;;5.47;71.59;95335.34;5052544;28;20223;-80
2022/03/01 10:06:17;;;;;;;8.77;5.77;;;;;;;5.54;70.16;95331.13;5052859;28;20196;-81
2022/03/01 10:08:46;;;;;;;10.07;6.90;;;;;;;5.49;70.00;95336.78;5052524;28;20630;-81
2022/03/01 10:11:18;;;;;;;11.70;6.73;;;;;;;5.65;70.86;95335.91;5052992;28;20212;-80
2022/03/01 10:13:46;;;;;;;15.63;7.10;;;;;;;5.74;70.67;95325.34;5052925;28;20196;-80
2022/03/01 10:16:15;;;;;;;13.43;7.43;;;;;;;5.68;69.14;95333.75;5051702;28;20208;-82
2022/03/01 10:18:53;;;;;;;10.33;6.87;;;;;;;5.53;70.14;95330.34;5053353;28;20269;-81
2022/03/01 10:21:22;;;;;;;12.97;7.30;;;;;;;5.58;70.36;95333.19;5052043;28;20234;-81
2022/03/01 10:23:53;;;;;;;12.13;7.77;;;;;;;5.43;71.08;95328.91;5052649;28;20219;-81
2022/03/01 10:26:24;;;;;;;14.97;8.37;;;;;;;5.27;71.92;95324.69;5053289;28;20592;-81
2022/03/01 10:28:55;;;;;;;10.13;7.30;;;;;;;5.32;70.78;95326.72;5051352;28;20302;-81
2022/03/01 10:31:25;;;;;;;10.37;7.03;;;;;;;4.65;73.35;95303.16;5050355;28;20646;-81
2022/03/01 10:34:08;;;;;;;12.10;6.80;;;;;;;4.50;75.14;95315.91;5053526;28;20262;-81
2022/03/01 10:36:37;;;;;;;13.23;7.07;;;;;;;4.48;76.13;95324.78;5053026;28;20199;-82
2022/03/01 10:39:08;;;;;;;10.97;7.27;;;;;;;4.35;76.15;95309.03;5052192;28;20224;-81
2022/03/01 10:41:40;;;;;;;17.07;7.47;;;;;;;4.27;75.32;95315.00;5051626;28;20214;-80
2022/03/01 10:44:13;;;;;;;14.90;7.97;;;;;;;4.03;77.41;95303.94;5050804;28;20253;-81
2022/03/01 10:46:43;;;;;;;14.83;8.17;;;;;;;4.12;77.74;95306.34;5048259;28;20240;-81
2022/03/01 10:49:16;;;;;;;12.53;6.87;;;;;;;4.16;78.52;95291.38;5052314;28;20256;-81
2022/03/01 10:51:51;;;;;;;11.17;7.57;;;;;;;5.15;78.19;95295.91;5052347;28;20207;-83
2022/03/01 10:54:28;;;;;;;14.37;7.83;;;;;;;6.19;74.88;95303.94;5050623;28;20277;-78
2022/03/01 10:56:57;;;;;;;14.73;7.87;;;;;;;7.09;69.30;95294.25;5051809;28;20264;-89
2022/03/01 10:59:27;;;;;;;11.10;7.60;;;;;;;7.49;65.93;95300.69;5052649;28;20205;-87
2022/03/01 11:01:56;;;;;;;13.47;7.50;;;;;;;7.68;64.63;95291.50;5052179;28;20198;-89
2022/03/01 11:04:26;;;;;;;11.70;6.97;;;;;;;7.29;65.88;95303.06;5050814;28;20696;-88
2022/03/01 11:06:54;;;;;;;11.53;6.83;;;;;;;7.25;65.02;95303.56;5052775;28;20206;-87
2022/03/01 11:09:25;;;;;;;17.70;10.10;;;;;;;7.52;64.66;95299.50;5052718;28;20236;-88
2022/03/01 11:11:55;;;;;;;16.10;8.97;;;;;;;7.64;64.59;95300.63;5052700;28;20248;-88
2022/03/01 11:14:26;;;;;;;15.10;8.10;;;;;;;7.36;64.89;95280.63;5053581;28;20255;-89
2022/03/01 11:17:05;;;;;;;12.47;7.33;;;;;;;7.22;64.57;95293.59;5037664;28;20197;-86
2022/03/01 11:19:57;;;;;;;16.93;7.77;;;;;;;6.74;65.43;95277.72;5053241;28;20216;-86
2022/03/01 11:22:28;;;;;;;11.37;7.63;;;;;;;6.46;65.80;95286.25;5050824;28;20193;-86
2022/03/01 11:24:56;;;;;;;12.30;6.90;;;;;;;6.06;67.73;95277.13;5052529;28;20213;-85
2022/03/01 11:27:25;;;;;;;11.10;6.87;;;;;;;5.55;67.77;95268.28;5052549;28;20667;-86
2022/03/01 11:30:06;;;;;;;11.63;7.27;;;;;;;5.26;68.92;95276.69;5052563;28;20655;-86
2022/03/01 11:32:42;;;;;;;12.27;7.50;;;;;;;5.23;68.57;95261.56;5052181;28;20205;-88
2022/03/01 11:35:22;;;;;;;9.10;6.60;;;;;;;4.82;70.84;95255.03;5051148;28;20294;-89